Time;durP1;ratioP1;P1;durP2;ratioP2;P2;SDS_P1;SDS_P2;PMS_P1;PMS_P2;Temp;Humidity;BMP_temperature;BMP_pressure;BME280_temperature;BME280_humidity;BME280_pressure;Samples;Min_cycle;Max_cycle;Signal;HPM_P1;HPM_P2
2021/10/07 00:01:47;;;;;;;3.07;2.87;;;10.70;99.90;;;;;;4965255;28;20489;-81
2021/10/07 00:04:16;;;;;;;3.17;2.87;;;10.50;99.90;;;;;;4949600;28;20501;-82
2021/10/07 00:06:42;;;;;;;4.30;2.77;;;10.30;99.90;;;;;;4982166;28;20406;-81
2021/10/07 00:09:10;;;;;;;3.30;2.70;;;10.20;99.90;;;;;;4966625;28;20409;-81
2021/10/07 00:11:36;;;;;;;3.20;3.00;;;10.20;99.90;;;;;;4951163;28;20417;-82
2021/10/07 00:14:11;;;;;;;3.77;2.80;;;10.10;99.90;;;;;;4912635;29;20435;-82
2021/10/07 00:16:40;;;;;;;8.60;3.77;;;10.20;99.90;;;;;;4912141;29;20412;-81
2021/10/07 00:19:07;;;;;;;3.30;2.70;;;10.00;99.90;;;;;;4928119;29;20452;-82
2021/10/07 00:21:37;;;;;;;6.93;2.90;;;10.10;99.90;;;;;;4896434;29;20436;-82
2021/10/07 00:24:08;;;;;;;3.30;2.30;;;10.20;99.90;;;;;;4925295;29;20424;-81
2021/10/07 00:26:40;;;;;;;6.50;3.50;;;10.30;99.90;;;;;;4913018;29;20430;-82
2021/10/07 00:29:26;;;;;;;5.10;2.70;;;10.50;99.90;;;;;;4963375;29;20414;-81
2021/10/07 00:31:56;;;;;;;5.30;4.47;;;10.40;99.90;;;;;;4954231;28;20626;-82
2021/10/07 00:34:39;;;;;;;9.20;4.60;;;10.30;99.90;;;;;;4979405;28;20424;-81
2021/10/07 00:37:21;;;;;;;7.17;5.73;;;10.40;99.90;;;;;;4964324;28;20445;-82
2021/10/07 00:39:51;;;;;;;4.10;3.60;;;10.40;99.90;;;;;;4963775;28;20410;-81
2021/10/07 00:42:17;;;;;;;3.83;2.27;;;10.30;99.90;;;;;;4945957;28;20437;-81
2021/10/07 00:44:45;;;;;;;3.87;3.47;;;10.20;99.90;;;;;;4976490;28;20427;-82
2021/10/07 00:47:12;;;;;;;4.10;3.70;;;10.20;99.90;;;;;;4970142;28;20478;-81
2021/10/07 00:49:39;;;;;;;5.73;2.80;;;10.40;99.90;;;;;;4963519;28;20789;-82
2021/10/07 00:52:09;;;;;;;3.67;3.03;;;10.30;99.90;;;;;;4941189;29;20464;-81
2021/10/07 00:54:36;;;;;;;4.97;4.57;;;10.20;99.90;;;;;;4892673;29;20463;-82
2021/10/07 00:57:04;;;;;;;4.30;3.13;;;10.30;99.90;;;;;;4921817;29;20448;-82
2021/10/07 00:59:33;;;;;;;2.90;2.53;;;10.30;99.90;;;;;;4921447;29;20409;-82
2021/10/07 01:02:10;;;;;;;3.97;2.23;;;10.20;99.90;;;;;;4922370;29;20412;-82
2021/10/07 01:04:37;;;;;;;7.83;2.67;;;10.10;99.90;;;;;;4875518;29;20422;-78
2021/10/07 01:07:09;;;;;;;3.73;2.70;;;9.90;99.90;;;;;;4896519;29;20378;-78
2021/10/07 01:09:39;;;;;;;4.23;2.83;;;10.00;99.90;;;;;;4895778;29;20426;-78
2021/10/07 01:12:07;;;;;;;7.67;3.03;;;10.10;99.90;;;;;;4897050;29;20422;-79
2021/10/07 01:14:45;;;;;;;2.77;2.50;;;10.10;99.90;;;;;;4891336;29;20429;-81
2021/10/07 01:17:16;;;;;;;4.60;3.03;;;10.10;99.90;;;;;;4894838;29;20538;-82
2021/10/07 01:19:49;;;;;;;2.67;2.47;;;10.20;99.90;;;;;;4915108;29;20428;-81
2021/10/07 01:22:21;;;;;;;2.47;2.27;;;10.30;99.90;;;;;;4926084;28;20459;-82
2021/10/07 01:25:15;;;;;;;10.37;2.70;;;10.10;99.90;;;;;;4977658;28;20436;-81
2021/10/07 01:27:43;;;;;;;3.27;2.30;;;10.00;99.90;;;;;;4973841;28;20415;-81
2021/10/07 01:30:13;;;;;;;3.97;3.67;;;10.20;99.90;;;;;;4974118;28;20816;-82
2021/10/07 01:32:43;;;;;;;25.93;3.40;;;10.10;99.90;;;;;;4971661;28;20464;-81
2021/10/07 01:35:12;;;;;;;2.97;2.77;;;10.40;99.90;;;;;;5003997;28;20413;-82
2021/10/07 01:37:38;;;;;;;4.33;2.80;;;10.30;99.90;;;;;;4956463;28;20456;-82
2021/10/07 01:40:08;;;;;;;2.73;2.53;;;10.40;99.90;;;;;;4972057;28;20419;-82
2021/10/07 01:42:42;;;;;;;7.03;3.47;;;10.50;99.90;;;;;;4972484;28;20189;-82
2021/10/07 01:45:10;;;;;;;4.10;2.30;;;10.50;99.90;;;;;;4967049;28;20418;-81
2021/10/07 01:47:42;;;;;;;3.07;2.87;;;10.40;99.90;;;;;;4983568;28;20419;-82
2021/10/07 01:50:11;;;;;;;2.40;2.20;;;10.40;99.90;;;;;;4956854;28;20417;-81
2021/10/07 01:53:01;;;;;;;5.77;2.93;;;10.30;99.90;;;;;;4944567;29;20184;-81
2021/10/07 01:55:30;;;;;;;3.10;2.50;;;10.40;99.90;;;;;;4929722;29;20415;-82
2021/10/07 01:57:56;;;;;;;2.77;2.57;;;10.30;99.90;;;;;;4913592;29;20463;-81
2021/10/07 02:00:44;;;;;;;3.83;3.27;;;10.20;99.90;;;;;;4946198;29;20416;-82
2021/10/07 02:03:09;;;;;;;2.73;2.30;;;10.10;99.90;;;;;;4887867;29;20430;-82
2021/10/07 02:05:38;;;;;;;3.23;2.93;;;10.10;99.90;;;;;;4888856;29;20426;-82
2021/10/07 02:08:04;;;;;;;3.83;2.70;;;10.20;99.90;;;;;;4893622;29;20217;-81
2021/10/07 02:10:30;;;;;;;3.60;2.73;;;10.10;99.90;;;;;;4926134;29;20451;-82
2021/10/07 02:12:56;;;;;;;2.33;2.23;;;10.10;99.90;;;;;;4918699;29;20424;-83
2021/10/07 02:15:21;;;;;;;3.37;2.73;;;10.10;99.90;;;;;;4920794;29;20347;-83
2021/10/07 02:17:47;;;;;;;4.37;2.87;;;10.20;99.90;;;;;;4924078;29;20220;-82
2021/10/07 02:20:13;;;;;;;3.37;2.70;;;10.30;99.90;;;;;;4922098;29;20247;-81
2021/10/07 02:22:41;;;;;;;5.17;2.67;;;10.20;99.90;;;;;;4919259;29;20193;-81
2021/10/07 02:25:09;;;;;;;3.37;2.50;;;10.10;99.90;;;;;;4918988;29;20429;-82
2021/10/07 02:27:34;;;;;;;5.00;2.43;;;10.00;99.90;;;;;;4920922;29;20412;-82
2021/10/07 02:30:07;;;;;;;3.30;3.00;;;9.90;99.90;;;;;;4921508;29;20421;-83
2021/10/07 02:32:32;;;;;;;4.43;2.60;;;9.80;99.90;;;;;;4920386;29;20330;-83
2021/10/07 02:34:58;;;;;;;2.83;2.63;;;9.90;99.90;;;;;;4918741;29;20448;-83
2021/10/07 02:37:24;;;;;;;7.37;2.60;;;9.80;99.90;;;;;;4964033;28;20211;-82
2021/10/07 02:39:50;;;;;;;4.00;3.53;;;9.90;99.90;;;;;;4976661;28;20190;-83
2021/10/07 02:42:16;;;;;;;5.40;3.70;;;9.80;99.90;;;;;;4978504;28;20167;-83
2021/10/07 02:44:41;;;;;;;2.60;2.40;;;9.90;99.90;;;;;;4960898;28;20903;-83
2021/10/07 02:47:07;;;;;;;4.37;3.57;;;9.90;99.90;;;;;;5000401;28;20276;-83
2021/10/07 02:49:33;;;;;;;3.00;2.80;;;9.90;99.90;;;;;;5019921;28;20169;-82
2021/10/07 02:51:59;;;;;;;3.80;2.67;;;9.80;99.90;;;;;;5019517;28;20165;-83
2021/10/07 02:54:24;;;;;;;6.70;3.00;;;9.90;99.90;;;;;;5015550;28;20568;-83
2021/10/07 02:56:51;;;;;;;13.23;3.30;;;9.80;99.90;;;;;;4999660;28;20232;-83
2021/10/07 02:59:17;;;;;;;10.43;2.80;;;9.80;99.90;;;;;;4998887;28;20162;-83
2021/10/07 03:01:43;;;;;;;3.33;3.03;;;9.80;99.90;;;;;;4998359;28;20436;-83
2021/10/07 03:04:09;;;;;;;3.30;3.00;;;9.80;99.90;;;;;;5009393;28;20404;-83
2021/10/07 03:06:35;;;;;;;3.67;3.37;;;9.70;99.90;;;;;;5019670;28;20161;-83
2021/10/07 03:09:01;;;;;;;4.07;3.63;;;9.80;99.90;;;;;;5019878;28;20161;-80
2021/10/07 03:11:26;;;;;;;3.30;2.90;;;9.90;99.90;;;;;;5028234;28;20189;-80
2021/10/07 03:13:52;;;;;;;4.07;3.27;;;9.90;99.90;;;;;;5023185;28;20245;-80
2021/10/07 03:16:18;;;;;;;4.27;3.50;;;9.80;99.90;;;;;;5009411;28;20242;-80
2021/10/07 03:18:44;;;;;;;3.60;3.30;;;9.80;99.90;;;;;;5008455;28;20289;-80
2021/10/07 03:21:09;;;;;;;3.53;2.93;;;9.90;99.90;;;;;;5003303;28;20198;-82
2021/10/07 03:23:35;;;;;;;4.80;3.10;;;9.90;99.90;;;;;;5006448;28;20219;-83
2021/10/07 03:26:01;;;;;;;3.70;3.40;;;10.00;99.90;;;;;;5019430;28;20177;-83
2021/10/07 03:28:27;;;;;;;9.37;3.67;;;10.10;99.90;;;;;;5019612;28;20257;-82
2021/10/07 03:30:53;;;;;;;3.17;2.97;;;10.20;99.90;;;;;;5019023;28;20408;-83
2021/10/07 03:33:19;;;;;;;5.67;3.27;;;10.30;99.90;;;;;;5017090;28;20186;-83
2021/10/07 03:35:45;;;;;;;6.47;3.33;;;10.50;99.90;;;;;;4999750;28;20178;-82
2021/10/07 03:38:11;;;;;;;3.50;2.93;;;10.50;99.90;;;;;;4999371;28;20535;-82
2021/10/07 03:40:36;;;;;;;3.87;3.57;;;10.50;99.90;;;;;;5008854;28;20427;-82
2021/10/07 03:43:02;;;;;;;5.47;3.43;;;10.60;99.90;;;;;;5014978;28;20173;-82
2021/10/07 03:45:28;;;;;;;3.30;2.50;;;10.60;99.90;;;;;;5015061;28;20181;-82
2021/10/07 03:47:57;;;;;;;3.90;3.10;;;10.50;99.90;;;;;;5009061;28;20185;-82
2021/10/07 03:50:23;;;;;;;2.83;2.40;;;10.60;99.90;;;;;;5017454;28;20911;-82
2021/10/07 03:52:52;;;;;;;3.10;2.70;;;10.50;99.90;;;;;;5015402;28;20904;-83
2021/10/07 03:55:18;;;;;;;3.33;3.13;;;10.40;99.90;;;;;;5017517;28;20503;-83
2021/10/07 03:57:43;;;;;;;3.30;3.00;;;10.60;99.90;;;;;;5018060;28;20239;-83
2021/10/07 04:00:10;;;;;;;3.00;2.80;;;10.50;99.90;;;;;;5018106;28;20212;-82
2021/10/07 04:02:36;;;;;;;5.40;3.33;;;10.40;99.90;;;;;;5016964;28;20161;-82
2021/10/07 04:05:03;;;;;;;3.53;2.70;;;10.30;99.90;;;;;;5013630;28;20413;-83
2021/10/07 04:07:29;;;;;;;6.80;2.80;;;10.40;99.90;;;;;;5017896;28;20403;-81
2021/10/07 04:09:55;;;;;;;3.80;3.33;;;10.40;99.90;;;;;;5000092;28;20521;-83
2021/10/07 04:12:20;;;;;;;3.83;3.50;;;10.40;99.90;;;;;;5018770;28;20401;-83
2021/10/07 04:14:46;;;;;;;5.97;3.23;;;10.50;99.90;;;;;;5014597;28;20184;-83
2021/10/07 04:17:12;;;;;;;9.60;4.03;;;10.40;99.90;;;;;;5018035;28;20685;-83
2021/10/07 04:19:38;;;;;;;3.73;3.17;;;10.40;99.90;;;;;;5018269;28;20176;-84
2021/10/07 04:22:04;;;;;;;3.87;2.50;;;10.60;99.90;;;;;;5017833;28;20572;-82
2021/10/07 04:24:29;;;;;;;4.10;3.40;;;10.70;99.90;;;;;;5008375;28;20182;-83
2021/10/07 04:26:55;;;;;;;5.00;3.40;;;10.50;99.90;;;;;;5016442;28;20165;-82
2021/10/07 04:29:21;;;;;;;3.10;2.80;;;10.50;99.90;;;;;;5017720;28;20447;-82
2021/10/07 04:31:47;;;;;;;6.17;3.87;;;10.50;99.90;;;;;;5017819;28;20314;-83
2021/10/07 04:34:13;;;;;;;5.37;3.40;;;10.40;99.90;;;;;;5014398;28;20514;-81
2021/10/07 04:36:40;;;;;;;3.67;3.37;;;10.50;99.90;;;;;;5016702;28;20166;-81
2021/10/07 04:39:06;;;;;;;3.17;2.97;;;10.60;99.90;;;;;;5005580;28;20319;-82
2021/10/07 04:41:32;;;;;;;5.57;3.23;;;10.70;99.90;;;;;;5024894;28;20419;-83
2021/10/07 04:43:57;;;;;;;3.13;2.90;;;10.70;99.90;;;;;;5017401;28;20533;-81
2021/10/07 04:46:23;;;;;;;10.60;3.60;;;10.80;99.90;;;;;;5004031;28;20166;-82
2021/10/07 04:48:49;;;;;;;7.00;3.77;;;10.90;99.90;;;;;;5003181;28;20195;-82
2021/10/07 04:51:18;;;;;;;3.43;3.10;;;10.90;99.90;;;;;;5019126;28;20208;-80
2021/10/07 04:53:43;;;;;;;5.73;3.00;;;11.00;99.90;;;;;;5017343;28;20432;-79
2021/10/07 04:56:09;;;;;;;6.57;3.20;;;11.10;99.90;;;;;;5004803;28;20200;-82
2021/10/07 04:58:35;;;;;;;6.47;3.17;;;11.10;99.90;;;;;;5003919;28;20217;-82
2021/10/07 05:01:01;;;;;;;3.93;3.63;;;10.90;99.90;;;;;;5003440;28;20378;-82
2021/10/07 05:03:27;;;;;;;3.10;2.33;;;10.70;99.90;;;;;;5006916;28;20178;-83
2021/10/07 05:05:53;;;;;;;3.70;3.40;;;10.60;99.90;;;;;;5024093;28;20245;-81
2021/10/07 05:08:18;;;;;;;3.00;2.70;;;10.40;99.90;;;;;;5025064;28;20444;-83
2021/10/07 05:10:45;;;;;;;7.53;3.90;;;10.40;99.90;;;;;;5023940;28;20181;-82
2021/10/07 05:13:11;;;;;;;4.57;3.40;;;10.30;99.90;;;;;;5019277;28;20169;-82
2021/10/07 05:15:37;;;;;;;4.20;3.53;;;10.40;99.90;;;;;;5009202;28;20421;-82
2021/10/07 05:18:03;;;;;;;3.13;2.80;;;10.40;99.90;;;;;;4986718;28;20513;-83
2021/10/07 05:20:29;;;;;;;7.83;3.83;;;10.50;99.90;;;;;;5004528;28;20444;-83
2021/10/07 05:22:55;;;;;;;8.47;4.83;;;10.50;99.90;;;;;;5005841;28;20181;-83
2021/10/07 05:25:21;;;;;;;4.40;4.07;;;10.80;99.90;;;;;;5021782;28;20424;-83
2021/10/07 05:27:47;;;;;;;4.63;3.33;;;10.80;99.90;;;;;;5034560;28;20534;-82
2021/10/07 05:30:13;;;;;;;5.27;3.53;;;10.80;99.90;;;;;;5032382;28;20571;-82
2021/10/07 05:32:39;;;;;;;2.60;2.40;;;10.80;99.90;;;;;;5036980;28;20260;-83
2021/10/07 05:35:07;;;;;;;10.77;3.70;;;10.70;99.90;;;;;;5026643;28;20618;-82
2021/10/07 05:37:35;;;;;;;5.43;3.33;;;10.70;99.90;;;;;;5029592;28;20888;-83
2021/10/07 05:40:01;;;;;;;4.50;3.17;;;10.80;99.90;;;;;;5024709;28;20410;-80
2021/10/07 05:42:27;;;;;;;2.97;2.77;;;10.80;99.90;;;;;;5028851;28;20511;-80
2021/10/07 05:44:53;;;;;;;6.50;3.93;;;10.90;99.90;;;;;;5022605;28;20420;-81
2021/10/07 05:47:19;;;;;;;4.80;3.30;;;11.00;99.90;;;;;;5020416;28;20188;-81
2021/10/07 05:49:45;;;;;;;4.97;2.63;;;11.10;99.90;;;;;;5018708;28;20587;-82
2021/10/07 05:52:10;;;;;;;5.63;3.50;;;10.90;99.90;;;;;;5022317;28;20672;-81
2021/10/07 05:54:36;;;;;;;2.93;2.70;;;10.70;99.90;;;;;;5017610;28;20231;-82
2021/10/07 05:57:04;;;;;;;4.10;3.40;;;10.80;99.90;;;;;;5021602;28;20173;-81
2021/10/07 05:59:30;;;;;;;4.20;3.80;;;10.90;99.90;;;;;;5032719;28;20513;-81
2021/10/07 06:01:58;;;;;;;3.40;3.10;;;10.90;99.90;;;;;;5041972;28;20447;-81
2021/10/07 06:04:24;;;;;;;4.10;3.73;;;10.80;99.90;;;;;;5018817;28;20412;-82
2021/10/07 06:06:50;;;;;;;4.17;3.40;;;10.80;99.90;;;;;;5033530;28;20472;-82
2021/10/07 06:09:15;;;;;;;7.47;4.70;;;10.70;99.90;;;;;;5033282;28;20406;-82
2021/10/07 06:11:41;;;;;;;5.03;3.60;;;10.70;99.90;;;;;;5019763;28;20181;-82
2021/10/07 06:14:08;;;;;;;5.70;3.77;;;10.70;99.90;;;;;;5015005;28;20169;-81
2021/10/07 06:16:38;;;;;;;11.17;4.30;;;10.90;99.90;;;;;;5011321;28;20446;-82
2021/10/07 06:19:06;;;;;;;3.73;3.43;;;10.80;99.90;;;;;;5022893;28;20486;-81
2021/10/07 06:21:32;;;;;;;4.40;3.50;;;10.80;99.90;;;;;;5017616;28;20456;-82
2021/10/07 06:23:58;;;;;;;4.43;3.63;;;10.80;99.90;;;;;;5011944;28;20420;-81
2021/10/07 06:26:24;;;;;;;3.60;3.37;;;10.60;99.90;;;;;;5024306;28;20420;-83
2021/10/07 06:28:50;;;;;;;4.90;4.00;;;10.90;99.90;;;;;;5019077;28;20452;-81
2021/10/07 06:31:17;;;;;;;4.90;3.70;;;11.20;99.90;;;;;;5022657;28;20228;-82
2021/10/07 06:33:43;;;;;;;3.70;3.40;;;11.40;99.90;;;;;;5008909;28;20436;-81
2021/10/07 06:36:09;;;;;;;4.47;3.80;;;11.50;99.90;;;;;;5014775;28;20438;-82
2021/10/07 06:38:35;;;;;;;6.30;4.10;;;11.70;99.90;;;;;;5011232;28;20813;-82
2021/10/07 06:41:01;;;;;;;6.50;4.10;;;11.80;99.90;;;;;;5013063;28;20439;-82
2021/10/07 06:43:27;;;;;;;5.57;3.60;;;11.80;99.90;;;;;;5011144;28;20288;-79
2021/10/07 06:45:53;;;;;;;4.23;3.93;;;11.90;99.90;;;;;;5011373;28;20428;-82
2021/10/07 06:48:19;;;;;;;4.03;3.67;;;11.70;99.90;;;;;;4997104;28;20459;-82
2021/10/07 06:50:45;;;;;;;7.60;4.90;;;11.70;99.90;;;;;;5012672;28;20432;-81
2021/10/07 06:53:11;;;;;;;5.63;3.83;;;12.00;99.90;;;;;;5012418;28;20438;-82
2021/10/07 06:55:38;;;;;;;6.40;5.33;;;12.10;99.90;;;;;;5018498;28;20436;-82
2021/10/07 06:58:05;;;;;;;10.20;4.50;;;12.10;99.90;;;;;;5015639;28;20459;-82
2021/10/07 07:00:31;;;;;;;8.90;5.20;;;12.10;99.90;;;;;;5016400;28;20456;-82
2021/10/07 07:02:58;;;;;;;5.63;5.00;;;12.20;99.90;;;;;;5018997;28;20880;-82
2021/10/07 07:05:25;;;;;;;7.77;4.53;;;12.20;99.90;;;;;;5008808;28;20432;-80
2021/10/07 07:07:51;;;;;;;14.10;5.97;;;12.30;99.90;;;;;;5011034;28;20424;-82
2021/10/07 07:10:18;;;;;;;8.70;5.50;;;12.30;99.90;;;;;;5012834;28;20936;-82
2021/10/07 07:12:46;;;;;;;9.50;6.37;;;11.90;99.90;;;;;;5011903;28;20423;-82
2021/10/07 07:15:12;;;;;;;6.70;5.10;;;12.00;99.90;;;;;;5009187;28;20451;-81
2021/10/07 07:17:38;;;;;;;9.97;5.03;;;12.10;99.90;;;;;;5014954;28;20582;-82
2021/10/07 07:20:05;;;;;;;8.70;3.70;;;12.10;99.90;;;;;;5011384;28;21091;-81
2021/10/07 07:22:31;;;;;;;3.93;3.63;;;11.80;99.90;;;;;;5014827;28;20520;-81
2021/10/07 07:24:57;;;;;;;4.23;3.83;;;11.80;99.90;;;;;;5010658;28;20428;-81
2021/10/07 07:27:23;;;;;;;4.60;3.00;;;11.50;99.90;;;;;;5016691;28;20192;-81
2021/10/07 07:29:50;;;;;;;4.67;3.73;;;11.40;99.90;;;;;;5032257;28;20188;-80
2021/10/07 07:32:16;;;;;;;6.17;4.27;;;11.30;99.90;;;;;;5014506;28;20467;-82
2021/10/07 07:34:42;;;;;;;8.93;4.17;;;11.70;99.90;;;;;;5008581;28;20438;-81
2021/10/07 07:37:09;;;;;;;6.47;4.67;;;11.80;99.90;;;;;;5022024;28;20536;-81
2021/10/07 07:39:37;;;;;;;9.50;4.20;;;12.20;99.90;;;;;;5027636;28;20440;-80
2021/10/07 07:42:04;;;;;;;7.13;5.10;;;12.60;99.90;;;;;;5026009;28;20458;-81
2021/10/07 07:44:31;;;;;;;9.50;5.73;;;12.60;99.90;;;;;;5022097;28;20531;-79
2021/10/07 07:46:57;;;;;;;5.07;4.17;;;12.40;99.90;;;;;;5024307;28;20428;-81
2021/10/07 07:49:23;;;;;;;6.07;5.33;;;12.70;99.90;;;;;;5018515;28;20432;-82
2021/10/07 07:51:50;;;;;;;6.70;5.57;;;12.90;99.90;;;;;;5020241;28;20440;-80
2021/10/07 07:54:17;;;;;;;8.50;6.87;;;13.20;99.90;;;;;;5019459;28;20782;-81
2021/10/07 07:56:43;;;;;;;5.50;5.00;;;13.40;99.90;;;;;;5006440;28;20459;-81
2021/10/07 07:59:09;;;;;;;5.07;4.47;;;13.60;99.90;;;;;;5026328;28;20472;-81
2021/10/07 08:01:36;;;;;;;6.27;4.87;;;13.90;99.90;;;;;;4989693;28;20451;-81
2021/10/07 08:04:06;;;;;;;5.90;5.40;;;14.00;99.90;;;;;;5018327;28;20443;-81
2021/10/07 08:06:34;;;;;;;5.30;4.80;;;14.00;99.90;;;;;;5009127;28;20443;-81
2021/10/07 08:09:00;;;;;;;6.23;5.63;;;14.10;99.90;;;;;;5028786;28;20455;-81
2021/10/07 08:11:26;;;;;;;7.43;5.30;;;14.20;99.90;;;;;;5025715;28;20463;-81
2021/10/07 08:13:52;;;;;;;7.37;6.40;;;14.00;99.90;;;;;;5021709;28;20482;-81
2021/10/07 08:16:18;;;;;;;6.87;6.10;;;14.40;99.90;;;;;;5009593;28;20820;-81
2021/10/07 08:18:44;;;;;;;7.60;6.50;;;14.60;99.90;;;;;;5026605;28;20485;-81
2021/10/07 08:21:10;;;;;;;8.20;6.30;;;14.60;99.90;;;;;;5028612;28;20205;-82
2021/10/07 08:23:37;;;;;;;6.90;6.20;;;14.50;99.90;;;;;;5025139;28;20491;-81
2021/10/07 08:26:04;;;;;;;10.70;7.13;;;14.20;99.90;;;;;;5026716;28;20420;-81
2021/10/07 08:28:30;;;;;;;7.13;6.40;;;14.00;99.90;;;;;;5025785;28;20440;-80
2021/10/07 08:30:56;;;;;;;10.23;7.13;;;13.90;99.90;;;;;;5024433;28;20439;-80
2021/10/07 08:33:22;;;;;;;10.43;7.87;;;13.90;99.90;;;;;;5025395;28;20443;-80
2021/10/07 08:35:50;;;;;;;7.80;7.10;;;13.80;99.90;;;;;;5027962;28;20423;-82
2021/10/07 08:38:17;;;;;;;6.80;6.10;;;13.70;99.90;;;;;;5025605;28;20201;-81
2021/10/07 08:40:44;;;;;;;7.90;6.20;;;13.60;99.90;;;;;;5023656;28;20432;-81
2021/10/07 08:43:09;;;;;;;7.70;6.23;;;13.40;99.90;;;;;;5011620;28;20443;-82
2021/10/07 08:45:36;;;;;;;9.60;7.10;;;13.50;99.90;;;;;;5022410;28;20920;-81
2021/10/07 08:48:02;;;;;;;7.17;6.47;;;13.60;99.90;;;;;;5028877;28;20474;-81
2021/10/07 08:50:28;;;;;;;9.33;6.27;;;13.70;99.90;;;;;;5022389;28;21046;-81
2021/10/07 08:52:53;;;;;;;8.60;6.43;;;13.80;99.90;;;;;;5006977;28;20432;-79
2021/10/07 08:55:19;;;;;;;11.10;6.10;;;13.80;99.90;;;;;;5021923;28;20185;-80
2021/10/07 08:57:46;;;;;;;7.83;6.57;;;13.80;99.90;;;;;;5026153;28;20201;-81
2021/10/07 09:00:13;;;;;;;10.87;5.90;;;13.90;99.90;;;;;;5022947;28;20775;-80
2021/10/07 09:02:40;;;;;;;7.80;7.13;;;13.80;99.90;;;;;;5020381;28;20424;-81
2021/10/07 09:05:12;;;;;;;6.73;6.13;;;13.60;99.90;;;;;;5022661;28;20452;-81
2021/10/07 09:08:06;;;;;;;10.60;5.60;;;13.60;99.90;;;;;;5028244;28;20435;-81
2021/10/07 09:10:44;;;;;;;8.63;5.83;;;13.70;99.90;;;;;;5023544;28;20412;-81
2021/10/07 09:13:16;;;;;;;5.80;4.80;;;13.50;99.90;;;;;;5022347;28;20435;-81
2021/10/07 09:15:45;;;;;;;19.97;6.10;;;13.40;99.90;;;;;;5027622;28;20455;-81
2021/10/07 09:18:11;;;;;;;4.27;3.87;;;13.40;99.90;;;;;;5021697;28;20440;-81
2021/10/07 09:20:43;;;;;;;4.50;4.10;;;13.20;99.90;;;;;;5026209;28;20467;-82
2021/10/07 09:23:22;;;;;;;5.43;4.80;;;13.50;99.90;;;;;;5025440;28;20436;-81
2021/10/07 09:26:02;;;;;;;6.83;4.57;;;13.50;99.90;;;;;;5028704;28;20458;-81
2021/10/07 09:28:49;;;;;;;6.57;4.03;;;12.90;99.90;;;;;;5028613;28;20428;-81
2021/10/07 09:31:16;;;;;;;2.87;2.67;;;12.60;99.90;;;;;;5028594;28;20467;-81
2021/10/07 09:33:44;;;;;;;4.20;3.73;;;12.50;99.90;;;;;;5029345;28;20476;-80
2021/10/07 09:36:14;;;;;;;4.60;4.30;;;12.80;99.90;;;;;;5032608;28;20428;-81
2021/10/07 09:38:41;;;;;;;3.80;3.50;;;13.00;99.90;;;;;;5031118;28;20469;-81
2021/10/07 09:41:11;;;;;;;6.90;3.80;;;13.00;99.90;;;;;;5026017;28;20463;-81
2021/10/07 09:43:42;;;;;;;8.57;4.47;;;12.90;99.90;;;;;;5025209;28;20432;-81
2021/10/07 09:46:08;;;;;;;4.10;3.80;;;13.20;99.90;;;;;;5028108;28;20426;-82
2021/10/07 09:48:42;;;;;;;4.20;3.90;;;13.60;99.90;;;;;;5031108;28;20424;-80
2021/10/07 09:51:15;;;;;;;5.87;4.23;;;14.40;99.90;;;;;;5020923;28;20439;-81
2021/10/07 09:53:45;;;;;;;6.97;6.53;;;14.70;99.90;;;;;;5022315;28;20462;-81
2021/10/07 09:56:32;;;;;;;4.67;3.00;;;15.40;99.90;;;;;;4995021;28;20432;-81
2021/10/07 09:59:05;;;;;;;3.63;3.33;;;16.50;99.90;;;;;;4983718;28;20529;-79
2021/10/07 10:01:31;;;;;;;3.87;3.47;;;17.60;99.90;;;;;;4981558;28;20462;-81
2021/10/07 10:03:57;;;;;;;3.63;3.43;;;18.40;99.90;;;;;;4949459;28;20434;-81
2021/10/07 10:06:24;;;;;;;3.90;3.20;;;19.20;99.90;;;;;;4965003;28;20426;-80
2021/10/07 10:08:50;;;;;;;5.33;4.13;;;19.10;99.90;;;;;;4949772;28;20454;-81
2021/10/07 10:11:19;;;;;;;4.20;3.00;;;19.00;99.90;;;;;;4985040;28;20429;-80
2021/10/07 10:13:48;;;;;;;5.43;2.80;;;19.50;99.90;;;;;;4966197;28;20530;-81
2021/10/07 10:16:16;;;;;;;5.00;2.70;;;20.50;99.90;;;;;;4984316;28;20426;-81
2021/10/07 10:18:55;;;;;;;2.23;2.03;;;19.90;99.90;;;;;;4983133;28;20478;-80
2021/10/07 10:21:23;;;;;;;2.50;2.00;;;19.80;99.90;;;;;;4964777;28;20461;-79
2021/10/07 10:23:49;;;;;;;2.70;2.50;;;19.80;99.90;;;;;;4979148;28;20458;-81
2021/10/07 10:26:15;;;;;;;2.73;2.43;;;18.80;99.90;;;;;;4965364;28;20440;-82
2021/10/07 10:28:50;;;;;;;3.53;2.30;;;17.80;99.90;;;;;;4950350;28;20438;-80
2021/10/07 10:31:26;;;;;;;2.13;2.03;;;17.10;99.90;;;;;;5023141;28;20258;-77
2021/10/07 10:34:05;;;;;;;2.73;2.50;;;17.30;99.90;;;;;;5018865;28;20439;-80
2021/10/07 10:36:54;;;;;;;4.10;3.70;;;17.30;99.90;;;;;;5025056;28;20427;-81
2021/10/07 10:39:33;;;;;;;3.27;2.97;;;17.20;99.90;;;;;;5013577;28;20471;-81
2021/10/07 10:42:24;;;;;;;8.63;2.67;;;18.60;99.90;;;;;;5011343;28;20503;-82
2021/10/07 10:45:11;;;;;;;2.60;2.40;;;19.70;99.90;;;;;;4940033;29;20459;-81
2021/10/07 10:47:45;;;;;;;2.97;2.70;;;20.80;99.90;;;;;;4887541;29;20494;-82
2021/10/07 10:50:17;;;;;;;2.83;2.33;;;20.90;99.90;;;;;;4892566;29;20622;-82
2021/10/07 10:52:54;;;;;;;2.77;2.57;;;20.30;99.90;;;;;;4834563;29;20448;-81
2021/10/07 10:55:29;;;;;;;2.30;2.07;;;21.50;99.90;;;;;;4846345;29;20496;-81
2021/10/07 10:58:06;;;;;;;2.87;2.30;;;21.50;99.90;;;;;;4853896;29;20482;-81
2021/10/07 11:00:39;;;;;;;2.60;2.30;;;20.80;99.90;;;;;;4837917;29;20519;-81
2021/10/07 11:03:23;;;;;;;2.60;2.40;;;20.10;99.90;;;;;;4857917;29;20509;-81
2021/10/07 11:06:04;;;;;;;2.63;2.43;;;19.50;99.90;;;;;;4857473;29;20456;-82
2021/10/07 11:08:32;;;;;;;2.60;2.40;;;19.70;99.90;;;;;;4828971;29;20470;-82
2021/10/07 11:11:24;;;;;;;5.20;2.70;;;19.60;99.90;;;;;;4842472;29;20463;-81
2021/10/07 11:14:10;;;;;;;3.27;2.57;;;18.10;99.90;;;;;;4863498;29;20509;-81
2021/10/07 11:16:46;;;;;;;2.83;2.03;;;18.50;99.90;;;;;;4864959;29;20530;-82
2021/10/07 11:19:14;;;;;;;3.27;2.10;;;18.90;99.90;;;;;;4887210;29;20466;-82
2021/10/07 11:21:44;;;;;;;2.33;2.23;;;19.00;99.90;;;;;;4893252;29;20464;-81
2021/10/07 11:24:15;;;;;;;2.30;2.10;;;19.00;99.90;;;;;;4881404;29;20711;-81
2021/10/07 11:26:40;;;;;;;2.47;2.10;;;20.20;99.90;;;;;;4898358;29;20441;-81
2021/10/07 11:29:26;;;;;;;3.03;2.30;;;20.80;99.90;;;;;;4895784;29;20477;-81
2021/10/07 11:31:52;;;;;;;2.20;2.00;;;21.20;99.90;;;;;;4919609;29;20274;-79
2021/10/07 11:34:18;;;;;;;1.80;1.70;;;21.50;99.90;;;;;;4911592;29;20468;-82
2021/10/07 11:36:44;;;;;;;2.33;2.23;;;21.80;99.90;;;;;;4910827;29;20205;-80
2021/10/07 11:39:09;;;;;;;1.70;1.60;;;21.60;99.90;;;;;;4910725;29;20217;-81
2021/10/07 11:41:36;;;;;;;2.07;1.87;;;21.20;99.90;;;;;;4910933;29;20816;-81
2021/10/07 11:44:04;;;;;;;3.00;1.60;;;20.60;99.90;;;;;;4926504;29;20264;-80
2021/10/07 11:46:33;;;;;;;2.10;1.90;;;20.90;99.90;;;;;;4943650;29;20435;-80
2021/10/07 11:49:00;;;;;;;2.40;1.93;;;21.60;99.90;;;;;;4931939;28;20431;-80
2021/10/07 11:51:28;;;;;;;3.10;1.83;;;22.10;99.90;;;;;;4954853;28;20522;-80
2021/10/07 11:53:55;;;;;;;1.70;1.60;;;22.80;99.90;;;;;;4965240;28;20442;-82
2021/10/07 11:56:23;;;;;;;3.63;1.83;;;22.30;99.90;;;;;;4967043;28;20446;-82
2021/10/07 11:58:57;;;;;;;1.50;1.40;;;21.80;99.90;;;;;;4970836;28;20466;-83
2021/10/07 12:01:28;;;;;;;2.20;1.80;;;22.30;99.90;;;;;;4956203;28;20527;-83
2021/10/07 12:03:58;;;;;;;2.93;2.00;;;22.60;99.90;;;;;;5007687;28;20454;-80
2021/10/07 12:06:26;;;;;;;2.50;2.30;;;22.80;99.90;;;;;;5018523;28;20432;-79
2021/10/07 12:08:54;;;;;;;2.20;2.00;;;22.20;99.90;;;;;;5024457;28;20431;-81
2021/10/07 12:11:23;;;;;;;2.37;2.20;;;24.40;99.90;;;;;;5023014;28;20435;-82
2021/10/07 12:13:53;;;;;;;2.93;1.67;;;25.70;97.80;;;;;;5020510;28;20436;-81
2021/10/07 12:16:30;;;;;;;1.60;1.50;;;25.70;94.30;;;;;;5019739;28;20447;-81
2021/10/07 12:19:01;;;;;;;2.70;1.77;;;24.10;96.40;;;;;;5025284;28;20463;-81
2021/10/07 12:21:29;;;;;;;5.10;2.10;;;24.20;96.60;;;;;;5023180;28;20546;-79
2021/10/07 12:24:02;;;;;;;1.67;1.50;;;25.20;95.90;;;;;;5023506;28;20447;-81
2021/10/07 12:26:55;;;;;;;2.00;1.80;;;23.90;96.70;;;;;;5004625;28;20471;-81
2021/10/07 12:29:25;;;;;;;1.90;1.60;;;22.90;98.40;;;;;;5000207;28;20472;-80
2021/10/07 12:32:05;;;;;;;1.60;1.50;;;23.70;97.90;;;;;;4982739;28;20615;-81
2021/10/07 12:34:35;;;;;;;2.37;2.17;;;24.80;95.10;;;;;;4998079;28;20467;-81
2021/10/07 12:37:03;;;;;;;1.77;1.63;;;23.70;95.40;;;;;;4983165;28;20513;-81
2021/10/07 12:39:39;;;;;;;3.40;1.60;;;23.30;95.90;;;;;;4997134;28;20516;-81
2021/10/07 12:42:17;;;;;;;1.70;1.60;;;22.80;96.00;;;;;;4956153;28;20444;-81
2021/10/07 12:44:53;;;;;;;2.43;2.23;;;22.50;97.20;;;;;;4970681;28;20445;-82
2021/10/07 12:47:29;;;;;;;2.43;1.97;;;22.40;96.70;;;;;;4969413;28;20433;-83
2021/10/07 12:49:57;;;;;;;1.60;1.50;;;21.80;97.80;;;;;;4969779;28;20449;-81
2021/10/07 12:52:26;;;;;;;2.03;1.40;;;22.90;96.80;;;;;;4964454;28;20446;-82
2021/10/07 12:54:57;;;;;;;2.60;1.47;;;23.40;95.70;;;;;;4980733;28;20440;-80
2021/10/07 12:57:53;;;;;;;2.47;1.40;;;23.80;95.40;;;;;;4983901;28;20941;-82